Time;durP1;ratioP1;P1;durP2;ratioP2;P2;SDS_P1;SDS_P2;PMS_P1;PMS_P2;Temp;Humidity;BMP_temperature;BMP_pressure;BME280_temperature;BME280_humidity;BME280_pressure;Samples;Min_cycle;Max_cycle;Signal;HPM_P1;HPM_P2
2021/10/30 00:00:56;;;;;;;14.30;10.47;;;;;;;1.86;100.00;95791.41;5018818;28;20029;-73
2021/10/30 00:03:22;;;;;;;14.70;10.53;;;;;;;1.88;100.00;95784.38;5027128;28;20044;-73
2021/10/30 00:05:49;;;;;;;16.93;10.63;;;;;;;1.82;100.00;95784.81;5030121;28;20649;-72
2021/10/30 00:08:16;;;;;;;13.03;9.40;;;;;;;1.84;100.00;95772.56;5058330;28;20060;-72
2021/10/30 00:10:44;;;;;;;13.30;9.10;;;;;;;1.87;100.00;95783.50;5053446;28;20674;-72
2021/10/30 00:13:11;;;;;;;14.87;10.30;;;;;;;1.75;100.00;95779.28;5057241;28;20123;-73
2021/10/30 00:15:37;;;;;;;12.10;8.90;;;;;;;1.71;100.00;95783.06;5063200;28;20053;-73
2021/10/30 00:18:03;;;;;;;11.93;8.30;;;;;;;1.74;100.00;95787.16;5056681;28;20043;-74
2021/10/30 00:20:29;;;;;;;12.50;8.73;;;;;;;1.80;100.00;95786.69;5045904;28;20017;-73
2021/10/30 00:22:55;;;;;;;13.00;9.13;;;;;;;1.88;100.00;95786.97;5036382;28;20805;-73
2021/10/30 00:25:20;;;;;;;11.93;9.40;;;;;;;1.81;100.00;95783.16;5051240;28;20036;-73
2021/10/30 00:27:46;;;;;;;12.00;8.87;;;;;;;1.81;100.00;95783.16;5020401;28;20039;-73
2021/10/30 00:30:12;;;;;;;14.00;9.13;;;;;;;1.81;100.00;95781.41;5054974;28;20024;-73
2021/10/30 00:32:38;;;;;;;13.63;8.73;;;;;;;1.85;100.00;95776.81;5040734;28;20029;-72
2021/10/30 00:35:04;;;;;;;16.00;10.57;;;;;;;1.82;100.00;95784.81;5058033;28;20025;-72
2021/10/30 00:37:30;;;;;;;16.70;10.63;;;;;;;1.80;100.00;95781.50;5044523;28;20032;-72
2021/10/30 00:39:56;;;;;;;15.03;10.33;;;;;;;1.86;100.00;95781.06;5044621;28;20726;-72
2021/10/30 00:42:21;;;;;;;17.73;11.37;;;;;;;1.82;100.00;95769.28;5040945;28;20037;-72
2021/10/30 00:44:47;;;;;;;14.97;11.00;;;;;;;1.83;100.00;95776.91;5043691;28;20044;-72
2021/10/30 00:47:14;;;;;;;19.70;12.73;;;;;;;1.85;100.00;95779.41;5039192;28;20590;-72
2021/10/30 00:49:43;;;;;;;18.50;12.53;;;;;;;1.85;100.00;95769.84;5025870;28;20041;-72
2021/10/30 00:52:10;;;;;;;18.07;12.23;;;;;;;1.82;100.00;95769.28;5049280;28;20514;-72
2021/10/30 00:54:37;;;;;;;19.20;13.37;;;;;;;1.79;100.00;95761.72;5026898;28;21077;-72
2021/10/30 00:57:05;;;;;;;18.23;13.00;;;;;;;1.83;100.00;95765.72;5019716;28;20475;-72
2021/10/30 00:59:30;;;;;;;17.53;12.43;;;;;;;1.84;100.00;95760.41;5030764;28;20512;-72
2021/10/30 01:01:57;;;;;;;23.43;13.70;;;;;;;1.81;100.00;95750.31;5054001;28;20463;-72
2021/10/30 01:04:23;;;;;;;19.33;13.37;;;;;;;1.78;100.00;95758.31;5056333;28;20643;-72
2021/10/30 01:06:52;;;;;;;20.00;13.10;;;;;;;1.72;100.00;95751.00;5061090;28;20527;-72
2021/10/30 01:09:20;;;;;;;17.53;12.60;;;;;;;1.67;100.00;95754.88;5053885;28;20029;-72
2021/10/30 01:11:47;;;;;;;17.87;13.50;;;;;;;1.65;100.00;95760.19;5050246;28;20863;-72
2021/10/30 01:14:14;;;;;;;17.40;12.30;;;;;;;1.58;100.00;95765.00;5053341;28;20534;-72
2021/10/30 01:16:40;;;;;;;19.87;13.17;;;;;;;1.55;100.00;95748.88;5033205;28;21014;-72
2021/10/30 01:19:06;;;;;;;18.47;12.67;;;;;;;1.58;100.00;95752.03;5031138;28;20455;-72
2021/10/30 01:21:34;;;;;;;18.07;13.07;;;;;;;1.62;100.00;95752.63;5064542;28;20097;-72
2021/10/30 01:24:03;;;;;;;19.00;13.27;;;;;;;1.55;100.00;95752.28;5029633;28;20775;-72
2021/10/30 01:26:29;;;;;;;17.03;11.77;;;;;;;1.53;100.00;95746.38;5034335;28;20486;-72
2021/10/30 01:29:00;;;;;;;17.63;12.07;;;;;;;1.53;100.00;95743.78;5034079;28;20470;-72
2021/10/30 01:31:26;;;;;;;17.00;11.13;;;;;;;1.42;100.00;95738.59;5056079;28;20465;-72
2021/10/30 01:33:52;;;;;;;14.93;11.33;;;;;;;1.38;100.00;95740.59;5060174;28;20816;-73
2021/10/30 01:36:21;;;;;;;18.50;12.87;;;;;;;1.36;100.00;95737.28;5034727;28;20039;-73
2021/10/30 01:38:47;;;;;;;16.87;11.67;;;;;;;1.39;100.00;95723.28;5047084;28;20852;-72
2021/10/30 01:41:13;;;;;;;18.07;11.97;;;;;;;1.34;100.00;95723.63;5039097;28;20446;-73
2021/10/30 01:43:39;;;;;;;15.50;11.17;;;;;;;1.28;100.00;95721.50;5041685;28;20024;-73
2021/10/30 01:46:06;;;;;;;16.97;12.30;;;;;;;1.29;100.00;95709.38;5054497;28;21012;-72
2021/10/30 01:48:34;;;;;;;20.10;12.17;;;;;;;1.29;100.00;95704.19;5042786;28;20127;-73
2021/10/30 01:51:00;;;;;;;16.53;11.47;;;;;;;1.17;100.00;95704.16;5039209;28;20482;-72
2021/10/30 01:53:27;;;;;;;17.00;13.13;;;;;;;1.13;100.00;95696.72;5041865;28;20469;-73
2021/10/30 01:55:54;;;;;;;23.97;16.00;;;;;;;1.16;100.00;95699.09;5053831;28;20452;-73
2021/10/30 01:58:20;;;;;;;20.23;14.87;;;;;;;1.16;100.00;95689.56;5059021;28;20020;-73
2021/10/30 02:00:48;;;;;;;16.60;12.33;;;;;;;1.16;100.00;95705.09;5043402;28;20462;-73
2021/10/30 02:03:13;;;;;;;18.13;12.63;;;;;;;1.13;100.00;95710.50;5044653;28;20486;-73
2021/10/30 02:05:40;;;;;;;15.33;11.37;;;;;;;1.19;100.00;95704.03;5047991;28;20439;-73
2021/10/30 02:08:05;;;;;;;18.20;11.30;;;;;;;1.12;100.00;95703.69;5058612;28;20025;-73
2021/10/30 02:10:31;;;;;;;13.80;9.20;;;;;;;1.17;100.00;95703.31;5063480;28;20474;-72
2021/10/30 02:12:57;;;;;;;14.17;9.77;;;;;;;1.29;100.00;95704.19;5043985;28;20047;-72
2021/10/30 02:15:23;;;;;;;14.10;9.60;;;;;;;1.23;100.00;95707.22;5037536;28;20037;-72
2021/10/30 02:17:49;;;;;;;12.13;8.10;;;;;;;1.18;100.00;95698.03;5067263;28;20649;-72
2021/10/30 02:20:14;;;;;;;13.27;9.30;;;;;;;1.22;100.00;95697.81;5031591;28;20029;-72
2021/10/30 02:22:42;;;;;;;12.20;8.73;;;;;;;1.12;100.00;95690.72;5041829;28;20033;-72
2021/10/30 02:25:09;;;;;;;14.47;8.63;;;;;;;1.12;100.00;95676.97;5032102;28;21018;-72
2021/10/30 02:27:36;;;;;;;12.63;8.07;;;;;;;1.12;100.00;95672.59;5062350;28;20435;-72
2021/10/30 02:30:05;;;;;;;12.83;8.30;;;;;;;1.14;100.00;95675.91;5062845;28;20482;-72
2021/10/30 02:32:31;;;;;;;14.43;9.37;;;;;;;1.07;100.00;95668.69;5027330;28;20450;-73
2021/10/30 02:34:57;;;;;;;12.70;8.43;;;;;;;1.07;100.00;95679.88;5058281;28;20498;-73
2021/10/30 02:37:22;;;;;;;12.77;8.87;;;;;;;1.08;100.00;95663.41;5062662;28;20024;-73
2021/10/30 02:39:48;;;;;;;14.57;8.53;;;;;;;1.04;100.00;95659.41;5057626;28;20020;-72
2021/10/30 02:42:14;;;;;;;13.03;9.37;;;;;;;1.07;100.00;95659.16;5062379;28;20090;-73
2021/10/30 02:44:40;;;;;;;13.10;9.30;;;;;;;1.05;100.00;95650.69;5050266;28;20065;-72
2021/10/30 02:47:06;;;;;;;15.53;10.53;;;;;;;1.06;100.00;95652.34;5026439;28;20063;-72
2021/10/30 02:49:33;;;;;;;13.80;9.70;;;;;;;1.05;100.00;95655.88;5034612;28;20455;-71
2021/10/30 02:51:59;;;;;;;14.20;9.50;;;;;;;1.03;100.00;95649.97;5050231;28;20466;-72
2021/10/30 02:54:25;;;;;;;17.00;10.40;;;;;;;1.04;100.00;95643.88;5024538;28;20481;-74
2021/10/30 02:56:51;;;;;;;17.17;11.60;;;;;;;1.07;100.00;95638.44;5052032;28;20489;-73
2021/10/30 02:59:16;;;;;;;15.17;10.17;;;;;;;1.03;100.00;95641.38;5038431;28;20037;-73
2021/10/30 03:01:42;;;;;;;15.27;11.23;;;;;;;0.98;100.00;95633.16;5035683;28;20019;-73
2021/10/30 03:04:08;;;;;;;15.40;10.63;;;;;;;0.95;100.00;95634.22;5049740;28;20037;-73
2021/10/30 03:06:34;;;;;;;16.30;11.13;;;;;;;0.97;100.00;95634.91;5042931;28;20024;-73
2021/10/30 03:09:00;;;;;;;17.93;11.20;;;;;;;0.93;100.00;95641.25;5040717;28;20068;-72
2021/10/30 03:11:26;;;;;;;16.60;10.43;;;;;;;0.96;100.00;95638.44;5035927;28;20442;-72
2021/10/30 03:13:52;;;;;;;18.57;11.07;;;;;;;0.98;100.00;95646.94;5063682;28;20459;-72
2021/10/30 03:16:17;;;;;;;16.10;10.17;;;;;;;0.93;100.00;95630.91;5056068;28;20029;-73
2021/10/30 03:18:43;;;;;;;15.20;10.10;;;;;;;0.97;100.00;95632.31;5047313;28;20040;-72
2021/10/30 03:21:09;;;;;;;14.30;10.33;;;;;;;0.94;100.00;95622.22;5050055;28;20466;-72
2021/10/30 03:23:35;;;;;;;16.40;11.13;;;;;;;0.87;100.00;95619.25;5053696;28;20151;-73
2021/10/30 03:26:02;;;;;;;15.90;10.47;;;;;;;0.85;100.00;95622.91;5055376;28;20986;-73
2021/10/30 03:28:28;;;;;;;17.60;10.53;;;;;;;0.90;100.00;95615.59;5018736;28;20082;-73
2021/10/30 03:31:00;;;;;;;18.20;11.63;;;;;;;0.88;100.00;95615.72;5059549;28;20475;-73
2021/10/30 03:33:27;;;;;;;22.10;13.38;;;;;;;0.98;100.00;95623.63;5055143;28;20480;-73
2021/10/30 03:35:52;;;;;;;18.73;12.53;;;;;;;1.18;100.00;95620.34;5040885;28;20024;-73
2021/10/30 03:38:18;;;;;;;19.27;12.87;;;;;;;1.27;100.00;95612.81;5034909;28;20065;-72
2021/10/30 03:40:44;;;;;;;17.27;11.43;;;;;;;1.18;100.00;95619.53;5064716;28;20028;-72
2021/10/30 03:43:11;;;;;;;15.63;11.17;;;;;;;1.16;100.00;95617.03;5038560;28;20032;-72
2021/10/30 03:45:36;;;;;;;17.17;12.03;;;;;;;1.25;100.00;95605.16;5046091;28;20446;-72
2021/10/30 03:48:09;;;;;;;18.97;12.27;;;;;;;1.39;100.00;95606.69;5045994;28;20110;-73
2021/10/30 03:50:36;;;;;;;21.03;13.63;;;;;;;1.58;100.00;95604.31;5062930;28;20097;-72
2021/10/30 03:53:05;;;;;;;19.97;13.57;;;;;;;1.56;100.00;95597.59;5014972;28;20479;-73
2021/10/30 03:55:31;;;;;;;16.20;11.67;;;;;;;1.46;100.00;95607.84;5038664;28;20534;-73
2021/10/30 03:57:57;;;;;;;16.63;11.23;;;;;;;1.39;100.00;95610.09;5042643;28;20447;-73
2021/10/30 04:00:23;;;;;;;17.67;11.03;;;;;;;1.35;100.00;95598.34;5053960;28;20458;-73
2021/10/30 04:02:49;;;;;;;15.87;11.20;;;;;;;1.36;100.00;95599.16;5037209;28;20134;-72
2021/10/30 04:05:15;;;;;;;17.93;12.00;;;;;;;1.52;100.00;95591.03;5056645;28;20122;-73
2021/10/30 04:07:41;;;;;;;16.00;11.87;;;;;;;1.52;100.00;95580.66;5023630;28;20414;-72
2021/10/30 04:10:07;;;;;;;17.73;10.80;;;;;;;1.51;100.00;95585.03;5057650;28;20547;-72
2021/10/30 04:12:33;;;;;;;15.60;10.33;;;;;;;1.35;100.00;95594.91;5050759;28;20458;-72
2021/10/30 04:14:59;;;;;;;14.93;9.67;;;;;;;1.28;100.00;95593.75;5049323;28;20455;-72
2021/10/30 04:17:26;;;;;;;14.57;9.77;;;;;;;1.29;100.00;95588.44;5040251;28;20475;-73
2021/10/30 04:19:51;;;;;;;13.33;9.60;;;;;;;1.23;100.00;95590.69;5057595;28;20497;-73
2021/10/30 04:22:17;;;;;;;15.77;10.13;;;;;;;1.12;100.00;95594.09;5038872;28;20021;-74
2021/10/30 04:24:43;;;;;;;13.63;9.30;;;;;;;1.12;100.00;95589.72;5046277;28;20095;-72
2021/10/30 04:27:08;;;;;;;17.77;9.90;;;;;;;1.22;100.00;95576.09;5057487;28;20078;-72
2021/10/30 04:29:35;;;;;;;14.13;10.13;;;;;;;1.10;100.00;95570.88;5037631;28;20033;-72
2021/10/30 04:32:02;;;;;;;14.33;10.50;;;;;;;1.10;100.00;95568.31;5043280;28;20036;-72
2021/10/30 04:34:43;;;;;;;15.50;9.67;;;;;;;1.10;100.00;95573.47;5059456;28;20601;-72
2021/10/30 04:37:16;;;;;;;16.77;11.33;;;;;;;1.12;100.00;95563.84;5064965;28;20823;-72
2021/10/30 04:39:47;;;;;;;15.53;11.17;;;;;;;1.10;100.00;95545.00;5068832;28;20451;-73
2021/10/30 04:42:14;;;;;;;14.70;10.57;;;;;;;1.03;100.00;95543.81;5050853;28;20524;-72
2021/10/30 04:44:40;;;;;;;16.63;11.43;;;;;;;1.04;100.00;95544.66;5044369;28;20462;-72
2021/10/30 04:47:06;;;;;;;18.13;10.87;;;;;;;1.14;100.00;95546.44;5048369;28;20471;-73
2021/10/30 04:49:32;;;;;;;19.03;12.90;;;;;;;1.15;100.00;95542.88;5052370;28;20048;-73
2021/10/30 04:51:58;;;;;;;18.13;11.73;;;;;;;1.16;100.00;95543.72;5049568;28;20467;-73
2021/10/30 04:54:24;;;;;;;20.23;12.40;;;;;;;1.21;100.00;95540.75;5047846;28;21026;-73
2021/10/30 04:56:49;;;;;;;21.63;12.70;;;;;;;1.27;100.00;95541.09;5039829;28;20036;-72
2021/10/30 04:59:15;;;;;;;19.47;12.90;;;;;;;1.25;100.00;95542.19;5030099;28;20024;-72
2021/10/30 05:01:41;;;;;;;19.77;12.60;;;;;;;1.27;100.00;95538.50;5059066;28;20029;-73
2021/10/30 05:04:06;;;;;;;21.20;12.67;;;;;;;1.28;100.00;95527.22;5043129;28;20025;-72
2021/10/30 05:06:32;;;;;;;19.47;12.63;;;;;;;1.26;100.00;95521.34;5048553;28;20135;-72
2021/10/30 05:08:58;;;;;;;20.10;13.40;;;;;;;1.22;100.00;95512.16;5060734;28;20057;-72
2021/10/30 05:11:23;;;;;;;19.30;12.60;;;;;;;1.18;100.00;95498.63;5055624;28;20041;-72
2021/10/30 05:13:49;;;;;;;17.50;11.53;;;;;;;1.08;100.00;95500.28;5060541;28;20495;-72
2021/10/30 05:16:15;;;;;;;20.23;12.50;;;;;;;1.12;100.00;95496.50;5051238;28;20076;-72
2021/10/30 05:18:41;;;;;;;18.77;11.83;;;;;;;1.17;100.00;95493.56;5056964;28;20032;-72
2021/10/30 05:21:06;;;;;;;20.83;13.27;;;;;;;1.24;100.00;95499.06;5044679;28;20033;-72
2021/10/30 05:23:37;;;;;;;19.47;13.53;;;;;;;1.13;100.00;95485.19;5020431;28;20083;-72
2021/10/30 05:26:03;;;;;;;21.60;14.00;;;;;;;1.16;100.00;95486.72;5040352;28;20036;-72
2021/10/30 05:28:29;;;;;;;20.37;13.37;;;;;;;1.13;100.00;95477.44;5055903;28;20551;-72
2021/10/30 05:30:54;;;;;;;18.90;13.77;;;;;;;1.15;100.00;95475.56;5050320;28;20510;-72
2021/10/30 05:33:20;;;;;;;19.77;13.20;;;;;;;1.18;100.00;95487.44;5052741;28;20055;-73
2021/10/30 05:35:58;;;;;;;21.53;14.00;;;;;;;1.22;100.00;95482.84;5055626;28;20063;-73
2021/10/30 05:38:50;;;;;;;22.77;14.77;;;;;;;1.35;100.00;95478.34;5066107;28;20410;-73
2021/10/30 05:41:17;;;;;;;22.17;15.13;;;;;;;1.51;100.00;95471.00;5019838;28;20459;-73
2021/10/30 05:43:43;;;;;;;28.17;17.57;;;;;;;1.56;100.00;95461.09;5045001;28;20808;-73
2021/10/30 05:46:09;;;;;;;25.07;17.97;;;;;;;1.63;100.00;95462.22;5023120;28;20459;-72
2021/10/30 05:48:35;;;;;;;30.10;18.30;;;;;;;1.70;100.00;95464.34;5049268;28;20028;-72
2021/10/30 05:51:02;;;;;;;25.87;16.47;;;;;;;1.70;100.00;95459.16;5029721;28;20040;-73
2021/10/30 05:53:28;;;;;;;26.97;18.37;;;;;;;1.63;100.00;95461.41;5041960;28;20478;-74
2021/10/30 05:55:54;;;;;;;27.47;16.07;;;;;;;1.71;100.00;95465.97;5038151;28;20793;-75
2021/10/30 05:58:20;;;;;;;30.80;18.63;;;;;;;1.84;100.00;95461.44;5053645;28;20534;-72
2021/10/30 06:00:45;;;;;;;34.50;21.20;;;;;;;1.97;100.00;95451.72;5049757;28;20037;-72
2021/10/30 06:03:11;;;;;;;45.23;25.03;;;;;;;2.32;100.00;95453.19;5054815;28;20390;-73
2021/10/30 06:05:37;;;;;;;42.47;25.67;;;;;;;2.50;100.00;95448.22;5043457;28;20048;-73
2021/10/30 06:08:03;;;;;;;33.57;20.83;;;;;;;2.32;100.00;95459.19;5062960;28;20024;-73
2021/10/30 06:10:30;;;;;;;34.60;22.57;;;;;;;2.40;100.00;95453.34;5065410;28;20031;-73
2021/10/30 06:12:56;;;;;;;33.50;21.80;;;;;;;2.49;100.00;95449.19;5040298;28;20401;-73
2021/10/30 06:15:22;;;;;;;28.80;18.20;;;;;;;2.32;100.00;95455.78;5059691;28;20052;-73
2021/10/30 06:17:47;;;;;;;28.67;18.13;;;;;;;2.22;100.00;95447.94;5052480;28;20537;-73
2021/10/30 06:20:13;;;;;;;30.90;19.70;;;;;;;2.34;100.00;95446.09;5056064;28;20025;-74
2021/10/30 06:22:42;;;;;;;31.40;19.43;;;;;;;2.43;100.00;95447.09;5032551;28;20116;-74
2021/10/30 06:25:10;;;;;;;31.40;19.63;;;;;;;2.48;100.00;95445.78;5038706;28;20055;-73
2021/10/30 06:27:36;;;;;;;32.77;21.30;;;;;;;2.55;100.00;95451.25;5043143;28;20059;-73
2021/10/30 06:30:02;;;;;;;27.67;20.70;;;;;;;2.56;100.00;95443.34;5032206;28;20513;-74
2021/10/30 06:32:28;;;;;;;31.17;20.33;;;;;;;2.66;100.00;95438.19;5066392;28;20095;-74
2021/10/30 06:34:54;;;;;;;26.27;18.57;;;;;;;2.71;100.00;95445.56;5046888;28;20055;-74
2021/10/30 06:37:19;;;;;;;27.80;19.37;;;;;;;2.77;100.00;95447.66;5043313;28;20036;-74
2021/10/30 06:39:45;;;;;;;31.43;21.60;;;;;;;2.92;100.00;95443.75;5040702;28;20040;-74
2021/10/30 06:42:11;;;;;;;31.03;18.27;;;;;;;3.18;100.00;95433.69;5059048;28;20948;-73
2021/10/30 06:44:37;;;;;;;30.70;19.97;;;;;;;3.40;100.00;95435.25;5056823;28;20040;-73
2021/10/30 06:47:02;;;;;;;27.87;18.23;;;;;;;3.40;100.00;95442.22;5044925;28;20037;-74
2021/10/30 06:49:29;;;;;;;29.63;19.40;;;;;;;3.38;100.00;95434.56;5044344;28;20478;-73
2021/10/30 06:51:55;;;;;;;26.60;18.17;;;;;;;3.56;100.00;95426.13;5047364;28;20036;-74
2021/10/30 06:54:20;;;;;;;24.60;17.00;;;;;;;3.66;100.00;95413.94;5026842;28;20041;-74
2021/10/30 06:56:48;;;;;;;25.50;17.57;;;;;;;3.66;100.00;95409.56;5034938;28;20036;-74
2021/10/30 06:59:13;;;;;;;24.00;16.27;;;;;;;3.77;100.00;95408.59;5056980;28;20090;-74
2021/10/30 07:01:40;;;;;;;23.87;16.17;;;;;;;3.84;100.00;95399.28;5040921;28;20020;-75
2021/10/30 07:04:06;;;;;;;22.30;15.50;;;;;;;3.92;100.00;95402.03;5040505;28;20056;-73
2021/10/30 07:06:35;;;;;;;20.60;14.63;;;;;;;4.04;100.00;95404.47;5041469;28;20052;-73
2021/10/30 07:09:01;;;;;;;21.00;14.23;;;;;;;4.13;100.00;95391.44;5021359;28;20037;-73
2021/10/30 07:11:27;;;;;;;22.27;15.50;;;;;;;3.81;100.00;95402.16;5054664;28;20051;-73
2021/10/30 07:13:53;;;;;;;18.20;13.40;;;;;;;4.04;100.00;95388.84;5065194;28;20045;-73
2021/10/30 07:16:19;;;;;;;19.83;13.07;;;;;;;4.27;100.00;95387.56;5024219;28;20813;-73
2021/10/30 07:18:45;;;;;;;20.20;13.93;;;;;;;4.44;100.00;95383.41;5045232;28;20521;-73
2021/10/30 07:21:11;;;;;;;20.40;13.80;;;;;;;4.77;100.00;95370.81;5021681;28;20031;-73
2021/10/30 07:23:37;;;;;;;17.53;12.03;;;;;;;5.15;100.00;95373.16;5023187;28;20047;-73
2021/10/30 07:26:04;;;;;;;20.37;13.03;;;;;;;4.97;100.00;95373.16;5062377;28;20133;-73
2021/10/30 07:28:29;;;;;;;16.10;12.00;;;;;;;4.90;100.00;95366.88;5040690;28;20037;-73
2021/10/30 07:30:55;;;;;;;16.30;11.40;;;;;;;5.33;100.00;95357.56;5036375;28;20028;-73
2021/10/30 07:33:21;;;;;;;16.90;11.07;;;;;;;5.54;100.00;95362.47;5039639;28;20044;-74
2021/10/30 07:35:47;;;;;;;16.00;11.47;;;;;;;5.83;100.00;95359.59;5038081;28;20153;-74
2021/10/30 07:38:13;;;;;;;15.63;10.57;;;;;;;6.16;100.00;95354.66;5020457;28;20032;-74
2021/10/30 07:40:39;;;;;;;14.30;9.93;;;;;;;6.31;100.00;95342.69;5055194;28;20036;-74
2021/10/30 07:43:05;;;;;;;13.50;9.40;;;;;;;6.57;100.00;95342.66;5026267;28;20504;-74
2021/10/30 07:45:31;;;;;;;14.23;10.00;;;;;;;6.60;100.00;95351.94;5046427;28;20025;-74
2021/10/30 07:47:58;;;;;;;15.87;10.57;;;;;;;7.04;100.00;95342.16;5040163;28;20040;-74
2021/10/30 07:50:25;;;;;;;15.23;9.13;;;;;;;7.42;100.00;95347.00;5063217;28;20429;-74
2021/10/30 07:52:51;;;;;;;15.87;9.70;;;;;;;8.25;100.00;95349.44;5050764;28;20082;-75
2021/10/30 07:55:17;;;;;;;13.90;9.23;;;;;;;8.77;96.94;95358.66;5042057;28;20021;-74
2021/10/30 07:57:43;;;;;;;18.50;10.43;;;;;;;8.72;94.87;95365.22;5034369;28;20037;-74
2021/10/30 08:00:10;;;;;;;16.17;11.57;;;;;;;7.96;96.38;95365.66;5054846;28;20013;-73
2021/10/30 08:02:41;;;;;;;16.53;11.27;;;;;;;7.90;98.15;95372.34;5053959;28;20507;-74
2021/10/30 08:05:06;;;;;;;17.57;11.47;;;;;;;7.99;98.11;95360.91;5063707;28;20481;-73
2021/10/30 08:07:33;;;;;;;24.03;13.00;;;;;;;8.02;98.00;95355.34;5067967;28;20085;-74
2021/10/30 08:10:00;;;;;;;17.47;11.90;;;;;;;7.94;96.23;95357.13;5037551;28;20037;-74
2021/10/30 08:12:26;;;;;;;20.37;12.87;;;;;;;7.98;97.11;95350.59;5026136;28;20049;-75
2021/10/30 08:14:52;;;;;;;20.10;12.87;;;;;;;8.00;95.32;95338.97;5059864;28;20033;-74
2021/10/30 08:17:17;;;;;;;18.80;11.30;;;;;;;7.95;94.46;95337.84;5058594;28;20040;-74
2021/10/30 08:19:43;;;;;;;17.03;10.67;;;;;;;7.78;94.36;95332.63;5037414;28;20028;-73
2021/10/30 08:22:09;;;;;;;17.40;10.70;;;;;;;7.97;93.82;95343.72;5029638;28;20031;-73
2021/10/30 08:24:34;;;;;;;16.40;10.90;;;;;;;7.97;94.21;95335.88;5058107;28;20048;-74
2021/10/30 08:27:00;;;;;;;18.13;10.63;;;;;;;8.04;94.63;95327.19;5037045;28;20070;-74
2021/10/30 08:29:27;;;;;;;16.37;9.77;;;;;;;7.92;93.96;95353.88;5052900;28;20128;-73
2021/10/30 08:31:53;;;;;;;15.30;9.23;;;;;;;8.24;93.28;95363.50;5061770;28;20028;-73
2021/10/30 08:34:19;;;;;;;15.77;9.77;;;;;;;8.39;90.39;95356.63;5045629;28;20035;-74
2021/10/30 08:36:45;;;;;;;15.37;8.70;;;;;;;8.48;90.69;95360.03;5058580;28;20036;-74
2021/10/30 08:39:11;;;;;;;13.97;8.40;;;;;;;8.34;91.31;95352.84;5066454;28;20032;-74
2021/10/30 08:41:38;;;;;;;15.47;8.07;;;;;;;8.27;92.92;95334.34;5041368;28;20028;-74
2021/10/30 08:44:04;;;;;;;14.57;9.73;;;;;;;8.37;93.32;95331.56;5036970;28;20456;-73
2021/10/30 08:46:31;;;;;;;12.87;8.70;;;;;;;8.52;92.36;95324.69;5036281;28;20056;-74
2021/10/30 08:49:01;;;;;;;11.17;8.20;;;;;;;8.54;92.51;95327.13;5064001;28;20036;-74
2021/10/30 08:51:29;;;;;;;13.67;8.27;;;;;;;8.77;91.19;95316.72;5034028;28;20033;-74
2021/10/30 08:53:55;;;;;;;12.67;8.47;;;;;;;8.53;91.80;95294.84;5038483;28;20090;-74
2021/10/30 08:56:22;;;;;;;12.73;7.90;;;;;;;8.52;91.49;95302.88;5056382;28;20438;-74
2021/10/30 08:58:48;;;;;;;11.97;8.07;;;;;;;8.39;93.46;95317.34;5044384;28;20029;-73
2021/10/30 09:01:14;;;;;;;13.03;8.47;;;;;;;8.35;94.96;95312.56;5038408;28;20600;-73
2021/10/30 09:03:42;;;;;;;11.37;8.47;;;;;;;9.15;91.11;95310.63;5050084;28;20036;-73
2021/10/30 09:06:08;;;;;;;12.57;8.13;;;;;;;9.38;90.20;95309.81;5050016;28;20033;-73
2021/10/30 09:08:35;;;;;;;11.93;7.80;;;;;;;9.41;89.82;95304.22;5051909;28;20020;-74
2021/10/30 09:11:09;;;;;;;13.60;7.53;;;;;;;9.54;88.84;95312.31;5024934;28;20028;-74
2021/10/30 09:13:37;;;;;;;13.20;8.37;;;;;;;9.28;90.97;95319.72;5046484;28;20033;-74
2021/10/30 09:16:03;;;;;;;13.17;8.40;;;;;;;9.08;93.35;95329.84;5070585;28;20440;-74
2021/10/30 09:18:34;;;;;;;12.63;8.37;;;;;;;8.97;93.76;95328.41;5045082;28;20028;-74
2021/10/30 09:21:03;;;;;;;12.73;9.03;;;;;;;8.62;95.85;95335.78;5059967;28;20032;-74
2021/10/30 09:23:37;;;;;;;11.33;8.80;;;;;;;8.22;98.69;95332.25;5050035;28;20081;-73
2021/10/30 09:26:06;;;;;;;12.80;8.67;;;;;;;8.70;97.09;95322.63;5039462;28;20040;-74
2021/10/30 09:28:48;;;;;;;12.67;9.10;;;;;;;8.61;98.05;95334.13;5036613;28;20024;-74
2021/10/30 09:31:15;;;;;;;14.07;9.33;;;;;;;8.54;99.58;95348.88;5028137;28;20086;-74
2021/10/30 09:34:02;;;;;;;13.40;8.87;;;;;;;8.74;97.39;95338.84;5057763;28;20036;-74
2021/10/30 09:36:55;;;;;;;12.03;9.33;;;;;;;8.26;100.00;95330.91;5030879;28;20024;-74
2021/10/30 09:39:21;;;;;;;10.55;7.45;;;;;;;8.80;99.55;95329.47;5055530;28;20028;-74
2021/10/30 09:41:51;;;;;;;13.00;8.50;;;;;;;8.47;100.00;95332.22;5043397;28;20032;-74
2021/10/30 09:44:23;;;;;;;11.53;8.73;;;;;;;8.48;100.00;95326.81;5048310;28;20175;-74
2021/10/30 09:46:53;;;;;;;12.57;9.03;;;;;;;8.51;100.00;95328.25;5049791;28;20067;-74
2021/10/30 09:49:30;;;;;;;14.77;8.73;;;;;;;8.33;100.00;95301.44;5041565;28;20040;-74
2021/10/30 09:52:11;;;;;;;11.23;8.13;;;;;;;8.49;100.00;95309.28;5034217;28;20061;-73
2021/10/30 09:54:38;;;;;;;11.13;8.07;;;;;;;8.44;100.00;95306.34;5028211;28;20040;-73
2021/10/30 09:57:06;;;;;;;14.00;9.50;;;;;;;8.41;100.00;95301.44;5051559;28;20028;-73
2021/10/30 09:59:34;;;;;;;11.67;8.47;;;;;;;8.53;99.62;95300.09;5046733;28;20068;-74
2021/10/30 10:02:00;;;;;;;12.03;8.20;;;;;;;8.62;97.05;95293.03;5029938;28;20016;-74
2021/10/30 10:04:26;;;;;;;11.33;8.03;;;;;;;8.44;97.62;95296.69;5066612;28;20128;-73
2021/10/30 10:06:54;;;;;;;10.57;7.80;;;;;;;8.83;93.17;95295.06;5042233;28;20389;-74
2021/10/30 10:09:21;;;;;;;12.00;8.07;;;;;;;8.87;93.64;95291.09;5059196;28;20029;-74
2021/10/30 10:11:52;;;;;;;11.27;8.20;;;;;;;9.18;91.77;95289.28;5036647;28;20482;-74
2021/10/30 10:14:22;;;;;;;12.03;7.57;;;;;;;9.15;91.24;95289.66;5039185;28;20036;-74
2021/10/30 10:16:53;;;;;;;9.70;6.90;;;;;;;9.20;91.19;95294.34;5037714;28;20115;-73
2021/10/30 10:19:20;;;;;;;9.97;7.50;;;;;;;9.09;91.43;95300.00;5038703;28;20398;-74
2021/10/30 10:21:48;;;;;;;10.27;7.07;;;;;;;9.01;90.24;95297.41;5046288;28;20024;-74
2021/10/30 10:24:17;;;;;;;9.77;7.17;;;;;;;9.27;88.22;95291.84;5042223;28;20037;-73
2021/10/30 10:26:47;;;;;;;9.23;6.10;;;;;;;9.10;88.26;95299.00;5040476;28;20390;-74
2021/10/30 10:29:26;;;;;;;10.00;6.93;;;;;;;9.01;89.49;95277.25;5045218;28;20060;-74
2021/10/30 10:31:52;;;;;;;10.07;6.90;;;;;;;9.08;88.70;95267.69;5050005;28;20033;-73
2021/10/30 10:34:29;;;;;;;9.13;5.87;;;;;;;9.11;88.88;95266.53;5046282;28;20039;-73
2021/10/30 10:37:20;;;;;;;9.93;6.53;;;;;;;9.40;86.72;95260.59;5032276;28;20036;-74
2021/10/30 10:39:46;;;;;;;9.77;6.40;;;;;;;9.75;85.45;95260.97;5032831;28;20094;-73
2021/10/30 10:42:16;;;;;;;9.20;6.70;;;;;;;9.62;85.94;95257.16;5017489;28;20025;-75
2021/10/30 10:44:42;;;;;;;11.30;7.33;;;;;;;9.63;85.35;95250.91;5044856;28;20482;-74
2021/10/30 10:47:50;;;;;;;11.23;7.87;;;;;;;9.60;85.62;95251.25;5057859;28;20031;-74
2021/10/30 10:50:30;;;;;;;9.90;6.67;;;;;;;9.62;84.70;95249.28;5050174;28;20059;-75
2021/10/30 10:52:59;;;;;;;8.53;5.87;;;;;;;9.50;84.17;95249.88;5034567;28;20405;-74
2021/10/30 10:55:25;;;;;;;9.90;5.87;;;;;;;9.52;82.92;95248.69;5049776;28;20056;-75
2021/10/30 10:57:57;;;;;;;8.83;6.00;;;;;;;9.68;82.61;95259.06;5043154;28;20037;-74
2021/10/30 11:00:24;;;;;;;9.07;5.60;;;;;;;9.85;82.58;95264.97;5038501;28;20037;-74
2021/10/30 11:02:49;;;;;;;9.47;6.57;;;;;;;9.76;83.23;95246.84;5063212;28;20115;-74
2021/10/30 11:05:18;;;;;;;12.30;5.90;;;;;;;9.65;84.05;95241.03;5027314;28;20123;-74
2021/10/30 11:08:01;;;;;;;11.03;5.40;;;;;;;9.58;83.74;95245.34;5043540;28;20090;-73
2021/10/30 11:10:36;;;;;;;10.93;6.60;;;;;;;9.64;84.42;95244.66;5065106;28;20534;-73
2021/10/30 11:13:10;;;;;;;8.90;6.03;;;;;;;9.83;84.42;95243.34;5032424;28;20059;-74
2021/10/30 11:15:49;;;;;;;10.80;6.20;;;;;;;9.95;83.35;95242.91;5065553;28;20037;-74
2021/10/30 11:21:09;;;;;;;12.17;6.07;;;;;;;9.98;82.72;95239.91;5052432;28;20593;-74
2021/10/30 11:23:55;;;;;;;9.10;6.27;;;;;;;10.13;83.86;95246.81;5025220;28;20040;-74
2021/10/30 11:26:27;;;;;;;11.13;6.90;;;;;;;10.35;82.55;95249.56;5056616;28;20075;-74